createdAt,value
2023-11-25T00:01:15.136Z,91927.47
2023-11-25T00:03:41.788Z,91927.22
2023-11-25T00:06:08.576Z,91933.69
2023-11-25T00:08:35.044Z,91934.28
2023-11-25T00:11:01.736Z,91927.66
2023-11-25T00:13:28.281Z,91931.13
2023-11-25T00:15:55.955Z,91917.66
2023-11-25T00:18:23.756Z,91914.06
2023-11-25T00:20:50.354Z,91910.50
2023-11-25T00:23:18.810Z,91916.53
2023-11-25T00:25:45.338Z,91914.66
2023-11-25T00:28:12.060Z,91926.78
2023-11-25T00:30:39.490Z,91935.88
2023-11-25T00:33:06.306Z,91951.00
2023-11-25T00:35:32.869Z,91945.72
2023-11-25T00:37:59.406Z,91960.19
2023-11-25T00:40:26.853Z,91955.25
2023-11-25T00:42:53.731Z,91955.38
2023-11-25T00:45:22.030Z,91962.78
2023-11-25T00:47:48.588Z,91944.03
2023-11-25T00:50:17.839Z,91958.84
2023-11-25T00:52:44.368Z,91956.63
2023-11-25T00:55:11.813Z,91943.91
2023-11-25T00:57:39.083Z,91942.44
2023-11-25T01:00:06.938Z,91941.44
2023-11-25T01:02:34.134Z,91940.44
2023-11-25T01:05:00.783Z,91948.34
2023-11-25T01:07:27.396Z,91941.59
2023-11-25T01:09:54.219Z,91944.38
2023-11-25T01:12:21.830Z,91946.75
2023-11-25T01:14:48.434Z,91963.69
2023-11-25T01:17:14.977Z,91956.09
2023-11-25T01:19:41.844Z,91954.34
2023-11-25T01:22:08.576Z,91967.16
2023-11-25T01:24:35.173Z,91984.00
2023-11-25T01:27:01.747Z,91980.00
2023-11-25T01:29:28.236Z,91970.28
2023-11-25T01:31:54.663Z,91979.25
2023-11-25T01:34:21.426Z,91987.13
2023-11-25T01:36:48.599Z,91989.59
2023-11-25T01:39:15.301Z,91989.16
2023-11-25T01:41:44.674Z,91995.03
2023-11-25T01:44:11.494Z,91995.09
2023-11-25T01:46:39.702Z,92003.53
2023-11-25T01:49:11.786Z,92003.16
2023-11-25T01:51:43.839Z,92012.75
2023-11-25T01:54:17.483Z,92012.50
2023-11-25T01:56:54.969Z,92017.22
2023-11-25T01:59:22.412Z,92011.13
2023-11-25T02:01:50.026Z,92022.13
2023-11-25T02:04:17.096Z,92010.84
2023-11-25T02:06:43.972Z,92032.81
2023-11-25T02:09:10.599Z,92017.81
2023-11-25T02:12:03.594Z,92015.22
2023-11-25T02:14:30.224Z,92030.72
2023-11-25T02:16:57.523Z,92036.31
2023-11-25T02:19:27.790Z,92039.91
2023-11-25T02:21:54.412Z,92028.78
2023-11-25T02:24:21.091Z,92033.94
2023-11-25T02:26:47.874Z,92022.03
2023-11-25T02:29:14.828Z,92030.72
2023-11-25T02:31:41.734Z,92034.03
2023-11-25T02:34:08.284Z,92037.19
2023-11-25T02:36:35.247Z,92027.00
2023-11-25T02:39:02.781Z,92035.88
2023-11-25T02:41:29.443Z,92035.19
2023-11-25T02:43:56.590Z,92056.69
2023-11-25T02:46:24.700Z,92036.47
2023-11-25T02:48:51.835Z,92047.22
2023-11-25T02:51:18.400Z,92023.09
2023-11-25T02:53:45.296Z,92039.34
2023-11-25T02:56:11.846Z,92044.00
2023-11-25T02:58:38.382Z,92047.53
2023-11-25T03:01:09.186Z,92051.19
2023-11-25T03:03:38.173Z,92054.53
2023-11-25T03:06:07.036Z,92045.63
2023-11-25T03:08:35.776Z,92058.13
2023-11-25T03:11:06.072Z,92057.41
2023-11-25T03:13:32.662Z,92060.34
2023-11-25T03:16:02.515Z,92067.72
2023-11-25T03:18:29.056Z,92068.59
2023-11-25T03:20:55.623Z,92078.69
2023-11-25T03:23:22.099Z,92083.00
2023-11-25T03:25:48.695Z,92077.13
2023-11-25T03:28:16.285Z,92090.97
2023-11-25T03:30:42.957Z,92095.28
2023-11-25T03:33:10.762Z,92106.03
2023-11-25T03:35:37.523Z,92112.88
2023-11-25T03:38:05.473Z,92104.50
2023-11-25T03:40:32.066Z,92114.06
2023-11-25T03:42:59.603Z,92117.47
2023-11-25T03:45:27.271Z,92122.06
2023-11-25T03:47:55.588Z,92125.06
2023-11-25T03:50:22.159Z,92128.81
2023-11-25T03:52:48.675Z,92128.38
2023-11-25T03:55:15.243Z,92132.19
2023-11-25T03:57:44.205Z,92132.09
2023-11-25T04:00:15.712Z,92130.03
2023-11-25T04:02:43.770Z,92128.94
2023-11-25T04:05:11.677Z,92137.59
2023-11-25T04:07:38.416Z,92131.44
2023-11-25T04:10:16.965Z,92133.81
2023-11-25T04:12:45.246Z,92140.19
2023-11-25T04:15:13.555Z,92144.19
2023-11-25T04:17:41.256Z,92141.03
2023-11-25T04:20:18.855Z,92134.06
2023-11-25T04:22:47.297Z,92140.59
2023-11-25T04:25:15.637Z,92141.72
2023-11-25T04:27:48.842Z,92144.66
2023-11-25T04:30:17.164Z,92150.03
2023-11-25T04:32:45.893Z,92155.44
2023-11-25T04:35:12.898Z,92155.19
2023-11-25T04:37:39.445Z,92159.78
2023-11-25T04:40:06.783Z,92161.78
2023-11-25T04:42:33.803Z,92170.97
2023-11-25T04:45:01.032Z,92171.69
2023-11-25T04:47:28.067Z,92172.69
2023-11-25T04:49:55.154Z,92177.66
2023-11-25T04:52:21.708Z,92168.53
2023-11-25T04:54:49.921Z,92173.44
2023-11-25T04:57:16.803Z,92178.38
2023-11-25T04:59:43.577Z,92172.84
2023-11-25T05:02:10.181Z,92182.13
2023-11-25T05:04:36.862Z,92174.22
2023-11-25T05:07:04.922Z,92168.56
2023-11-25T05:09:31.493Z,92179.28
2023-11-25T05:11:57.967Z,92185.50
2023-11-25T05:14:24.469Z,92190.84
2023-11-25T05:16:51.502Z,92190.50
2023-11-25T05:19:18.372Z,92182.94
2023-11-25T05:21:44.963Z,92191.75
2023-11-25T05:24:11.987Z,92183.81
2023-11-25T05:26:38.462Z,92185.41
2023-11-25T05:29:06.432Z,92188.59
2023-11-25T05:31:34.586Z,92187.66
2023-11-25T05:34:05.883Z,92185.13
2023-11-25T05:36:33.979Z,92195.25
2023-11-25T05:39:01.123Z,92190.47
2023-11-25T05:41:31.035Z,92201.75
2023-11-25T05:43:58.663Z,92206.13
2023-11-25T05:46:25.512Z,92210.66
2023-11-25T05:48:55.323Z,92211.66
2023-11-25T05:51:22.195Z,92208.88
2023-11-25T05:53:48.816Z,92207.69
2023-11-25T05:56:15.293Z,92210.09
2023-11-25T05:58:41.817Z,92212.81
2023-11-25T06:01:08.387Z,92217.56
2023-11-25T06:03:35.019Z,92216.00
2023-11-25T06:06:01.924Z,92222.34
2023-11-25T06:08:28.408Z,92231.81
2023-11-25T06:10:57.488Z,92227.66
2023-11-25T06:13:24.248Z,92221.34
2023-11-25T06:15:52.841Z,92228.44
2023-11-25T06:18:21.664Z,92227.28
2023-11-25T06:20:48.890Z,92231.69
2023-11-25T06:23:18.679Z,92227.56
2023-11-25T06:25:45.521Z,92234.72
2023-11-25T06:28:15.986Z,92237.91
2023-11-25T06:30:42.635Z,92239.06
2023-11-25T06:33:09.180Z,92233.59
2023-11-25T06:35:38.076Z,92238.59
2023-11-25T06:38:05.377Z,92236.75
2023-11-25T06:40:34.558Z,92232.19
2023-11-25T06:43:01.616Z,92229.19
2023-11-25T06:45:28.274Z,92230.41
2023-11-25T06:47:55.620Z,92228.44
2023-11-25T06:50:23.517Z,92239.97
2023-11-25T06:52:50.419Z,92230.84
2023-11-25T06:55:19.802Z,92229.88
2023-11-25T06:57:47.492Z,92238.19
2023-11-25T07:00:14.916Z,92239.59
2023-11-25T07:02:42.176Z,92245.09
2023-11-25T07:05:09.760Z,92240.31
2023-11-25T07:07:37.364Z,92243.69
2023-11-25T07:10:04.819Z,92246.22
2023-11-25T07:12:31.888Z,92250.19
2023-11-25T07:14:58.417Z,92228.28
2023-11-25T07:17:24.959Z,92235.56
2023-11-25T07:19:51.529Z,92245.34
2023-11-25T07:22:18.041Z,92237.97
2023-11-25T07:24:47.630Z,92234.22
2023-11-25T07:27:19.364Z,92240.88
2023-11-25T07:29:46.474Z,92239.28
2023-11-25T07:32:13.815Z,92236.41
2023-11-25T07:34:40.371Z,92248.53
2023-11-25T07:37:07.157Z,92250.31
2023-11-25T07:39:34.300Z,92240.41
2023-11-25T07:42:02.092Z,92241.59
2023-11-25T07:44:31.586Z,92247.31
2023-11-25T07:46:59.243Z,92245.69
2023-11-25T07:49:25.939Z,92249.78
2023-11-25T07:51:52.386Z,92254.50
2023-11-25T07:54:19.216Z,92249.56
2023-11-25T07:56:46.666Z,92246.53
2023-11-25T07:59:13.129Z,92238.03
2023-11-25T08:01:39.917Z,92241.47
2023-11-25T08:04:06.511Z,92250.09
2023-11-25T08:06:33.113Z,92253.25
2023-11-25T08:09:00.095Z,92254.66
2023-11-25T08:11:28.248Z,92249.56
2023-11-25T08:13:55.765Z,92249.34
2023-11-25T08:16:22.985Z,92260.38
2023-11-25T08:18:49.569Z,92259.97
2023-11-25T08:21:16.155Z,92249.78
2023-11-25T08:23:43.013Z,92263.25
2023-11-25T08:26:24.174Z,92262.03
2023-11-25T08:28:51.316Z,92252.88
2023-11-25T08:31:18.334Z,92254.72
2023-11-25T08:33:45.410Z,92256.47
2023-11-25T08:36:13.261Z,92274.75
2023-11-25T08:38:40.060Z,92270.16
2023-11-25T08:41:07.641Z,92267.44
2023-11-25T08:43:47.229Z,92263.22
2023-11-25T08:46:14.723Z,92264.81
2023-11-25T08:48:43.016Z,92272.13
2023-11-25T08:51:11.877Z,92264.22
2023-11-25T08:53:39.073Z,92275.22
2023-11-25T08:56:07.716Z,92287.78
2023-11-25T08:58:34.350Z,92285.69
2023-11-25T09:01:02.690Z,92287.44
2023-11-25T09:03:29.218Z,92276.34
2023-11-25T09:05:55.809Z,92267.63
2023-11-25T09:08:22.291Z,92281.31
2023-11-25T09:10:50.552Z,92289.19
2023-11-25T09:13:17.957Z,92288.19
2023-11-25T09:15:45.320Z,92291.53
2023-11-25T09:18:13.453Z,92291.38
2023-11-25T09:20:39.945Z,92289.94
2023-11-25T09:23:06.452Z,92292.94
2023-11-25T09:25:33.027Z,92295.19
2023-11-25T09:27:59.619Z,92291.56
2023-11-25T09:30:27.198Z,92284.19
2023-11-25T09:32:54.696Z,92286.16
2023-11-25T09:35:21.993Z,92285.94
2023-11-25T09:37:49.893Z,92286.38
2023-11-25T09:40:17.338Z,92279.72
2023-11-25T09:42:46.010Z,92280.72
2023-11-25T09:45:12.963Z,92288.28
2023-11-25T09:47:40.816Z,92287.97
2023-11-25T09:50:10.175Z,92272.66
2023-11-25T09:52:50.018Z,92286.72
2023-11-25T09:55:18.707Z,92281.59
2023-11-25T09:57:54.740Z,92287.09
2023-11-25T10:00:22.514Z,92286.41
2023-11-25T10:02:55.487Z,92280.00
2023-11-25T10:05:22.268Z,92279.88
2023-11-25T10:07:48.944Z,92270.72
2023-11-25T10:10:22.447Z,92277.66
2023-11-25T10:12:50.392Z,92273.13
2023-11-25T10:15:17.564Z,92284.97
2023-11-25T10:17:49.417Z,92282.28
2023-11-25T10:20:23.960Z,92278.38
2023-11-25T10:22:54.743Z,92265.97
2023-11-25T10:25:25.695Z,92259.69
2023-11-25T10:27:52.628Z,92262.28
2023-11-25T10:30:21.597Z,92248.81
2023-11-25T10:32:50.938Z,92246.69
2023-11-25T10:35:17.719Z,92242.06
2023-11-25T10:37:49.354Z,92257.88
2023-11-25T10:40:18.358Z,92252.56
2023-11-25T10:42:46.388Z,92245.59
2023-11-25T10:45:17.010Z,92244.34
2023-11-25T10:47:43.729Z,92241.59
2023-11-25T10:50:11.629Z,92250.97
2023-11-25T10:52:39.789Z,92257.84
2023-11-25T10:55:09.993Z,92258.88
2023-11-25T10:57:37.326Z,92258.66
2023-11-25T11:00:11.696Z,92253.25
2023-11-25T11:02:46.519Z,92254.13
2023-11-25T11:05:18.924Z,92260.44
2023-11-25T11:07:52.931Z,92252.50
2023-11-25T11:10:31.083Z,92250.81
2023-11-25T11:13:04.725Z,92253.69
2023-11-25T11:15:31.936Z,92241.44
2023-11-25T11:18:20.552Z,92233.47
2023-11-25T11:20:51.025Z,92237.69
2023-11-25T11:23:23.280Z,92228.72
2023-11-25T11:26:00.670Z,92229.53
2023-11-25T11:28:44.739Z,92232.31
2023-11-25T11:31:48.078Z,92228.47
2023-11-25T11:34:14.801Z,92243.06
2023-11-25T11:36:41.753Z,92233.53
2023-11-25T11:39:12.620Z,92232.81
2023-11-25T11:41:40.274Z,92244.03
2023-11-25T11:44:09.001Z,92225.38
2023-11-25T11:46:40.073Z,92229.75
2023-11-25T11:49:08.969Z,92232.72
2023-11-25T11:51:36.216Z,92212.97
2023-11-25T11:54:20.840Z,92203.53
2023-11-25T11:57:04.040Z,92205.53
2023-11-25T12:00:12.363Z,92197.66
2023-11-25T12:02:43.708Z,92193.13
2023-11-25T12:05:11.817Z,92183.47
2023-11-25T12:07:38.984Z,92176.00
2023-11-25T12:10:06.787Z,92173.63
2023-11-25T12:12:40.818Z,92183.59
2023-11-25T12:15:09.100Z,92183.50
2023-11-25T12:17:36.050Z,92199.34
2023-11-25T12:20:02.862Z,92195.06
2023-11-25T12:22:29.609Z,92192.81
2023-11-25T12:24:56.116Z,92189.09
2023-11-25T12:27:24.590Z,92178.16
2023-11-25T12:29:51.100Z,92183.03
2023-11-25T12:32:18.074Z,92190.66
2023-11-25T12:34:46.479Z,92176.22
2023-11-25T12:37:14.387Z,92189.53
2023-11-25T12:39:41.099Z,92190.44
2023-11-25T12:42:07.785Z,92181.63
2023-11-25T12:44:50.460Z,92174.44
2023-11-25T12:47:17.585Z,92172.53
2023-11-25T12:49:45.916Z,92175.28
2023-11-25T12:52:24.328Z,92186.94
2023-11-25T12:54:51.151Z,92173.94
2023-11-25T12:57:19.052Z,92186.28
2023-11-25T12:59:47.110Z,92193.97
2023-11-25T13:02:14.066Z,92182.09
2023-11-25T13:04:47.620Z,92185.66
2023-11-25T13:07:31.459Z,92184.50
2023-11-25T13:09:58.103Z,92180.69
2023-11-25T13:12:25.353Z,92190.72
2023-11-25T13:14:52.054Z,92181.69
2023-11-25T13:17:18.700Z,92185.91
2023-11-25T13:19:45.292Z,92187.88
2023-11-25T13:22:11.858Z,92187.72
2023-11-25T13:24:38.350Z,92184.34
2023-11-25T13:27:05.088Z,92184.72
2023-11-25T13:29:31.718Z,92186.72
2023-11-25T13:31:58.184Z,92188.16
2023-11-25T13:34:25.366Z,92191.09
2023-11-25T13:36:53.408Z,92189.22
2023-11-25T13:39:24.443Z,92182.69
2023-11-25T13:41:50.964Z,92189.00
2023-11-25T13:44:17.469Z,92192.81
2023-11-25T13:46:44.022Z,92180.75
2023-11-25T13:49:10.889Z,92185.06
2023-11-25T13:51:37.447Z,92173.28
2023-11-25T13:54:04.096Z,92184.66
2023-11-25T13:56:30.641Z,92175.38
2023-11-25T13:58:58.640Z,92176.94
2023-11-25T14:01:26.178Z,92175.78
2023-11-25T14:03:57.333Z,92171.84
2023-11-25T14:06:29.497Z,92175.63
2023-11-25T14:08:56.096Z,92188.25
2023-11-25T14:11:26.071Z,92171.84
2023-11-25T14:13:52.898Z,92174.97
2023-11-25T14:16:19.516Z,92180.78
2023-11-25T14:18:46.026Z,92160.00
2023-11-25T14:21:12.509Z,92168.78
2023-11-25T14:23:39.233Z,92168.34
2023-11-25T14:26:05.862Z,92160.16
2023-11-25T14:28:32.740Z,92176.53
2023-11-25T14:30:59.298Z,92161.31
2023-11-25T14:33:25.868Z,92160.19
2023-11-25T14:35:52.397Z,92154.50
2023-11-25T14:38:18.956Z,92157.44
2023-11-25T14:40:45.601Z,92152.44
2023-11-25T14:43:12.173Z,92158.00
2023-11-25T14:45:40.571Z,92157.69
2023-11-25T14:48:08.861Z,92163.34
2023-11-25T14:50:41.640Z,92154.38
2023-11-25T14:53:08.494Z,92146.75
2023-11-25T14:55:35.811Z,92152.78
2023-11-25T14:58:02.394Z,92157.25
2023-11-25T15:00:30.901Z,92149.88
2023-11-25T15:02:59.364Z,92147.56
2023-11-25T15:05:26.103Z,92152.44
2023-11-25T15:07:52.750Z,92155.31
2023-11-25T15:10:19.272Z,92158.63
2023-11-25T15:12:45.960Z,92165.09
2023-11-25T15:15:14.095Z,92168.41
2023-11-25T15:17:40.767Z,92164.94
2023-11-25T15:20:08.354Z,92166.66
2023-11-25T15:22:35.064Z,92155.38
2023-11-25T15:25:01.702Z,92161.84
2023-11-25T15:27:28.196Z,92165.38
2023-11-25T15:30:06.553Z,92171.41
2023-11-25T15:32:33.241Z,92181.31
2023-11-25T15:34:59.807Z,92179.13
2023-11-25T15:37:26.436Z,92175.63
2023-11-25T15:39:53.758Z,92171.91
2023-11-25T15:42:20.245Z,92171.50
2023-11-25T15:47:13.932Z,92174.28
2023-11-25T15:49:41.733Z,92167.47
2023-11-25T15:52:08.267Z,92187.72
2023-11-25T15:54:34.852Z,92178.16
2023-11-25T15:57:01.838Z,92183.31
2023-11-25T15:59:30.639Z,92182.91
2023-11-25T16:01:57.992Z,92183.13
2023-11-25T16:04:25.072Z,92179.72
2023-11-25T16:06:54.890Z,92185.00
2023-11-25T16:09:21.643Z,92188.56
2023-11-25T16:11:48.352Z,92184.63
2023-11-25T16:14:14.888Z,92184.63
2023-11-25T16:16:41.493Z,92179.31
2023-11-25T16:19:08.315Z,92207.16
2023-11-25T16:21:37.800Z,92189.22
2023-11-25T16:24:05.796Z,92197.09
2023-11-25T16:26:32.370Z,92194.09
2023-11-25T16:28:58.905Z,92198.31
2023-11-25T16:31:25.500Z,92209.16
2023-11-25T16:33:52.400Z,92209.91
2023-11-25T16:36:19.988Z,92207.88
2023-11-25T16:38:46.501Z,92220.69
2023-11-25T16:41:13.303Z,92207.59
2023-11-25T16:43:40.058Z,92214.34
2023-11-25T16:46:06.905Z,92215.88
2023-11-25T16:48:43.679Z,92222.06
2023-11-25T16:51:19.263Z,92218.47
2023-11-25T16:53:47.595Z,92223.25
2023-11-25T16:56:14.485Z,92211.91
2023-11-25T16:58:41.169Z,92212.47
2023-11-25T17:01:07.891Z,92216.50
2023-11-25T17:03:35.898Z,92206.50
2023-11-25T17:06:06.637Z,92212.63
2023-11-25T17:08:33.590Z,92226.53
2023-11-25T17:11:00.150Z,92230.72
2023-11-25T17:13:26.740Z,92239.47
2023-11-25T17:15:53.247Z,92239.31
2023-11-25T17:18:19.715Z,92245.78
2023-11-25T17:20:46.203Z,92258.38
2023-11-25T17:23:12.730Z,92256.34
2023-11-25T17:25:39.262Z,92268.84
2023-11-25T17:28:05.788Z,92274.22
2023-11-25T17:30:36.174Z,92271.94
2023-11-25T17:33:03.975Z,92273.53
2023-11-25T17:35:30.643Z,92278.28
2023-11-25T17:37:57.787Z,92286.66
2023-11-25T17:40:24.691Z,92290.06
2023-11-25T17:42:51.190Z,92277.47
2023-11-25T17:45:20.462Z,92272.97
2023-11-25T17:47:47.040Z,92279.06
2023-11-25T17:50:13.614Z,92278.84
2023-11-25T17:52:40.154Z,92273.41
2023-11-25T17:55:07.137Z,92270.66
2023-11-25T17:57:34.182Z,92275.84
2023-11-25T18:00:01.081Z,92277.13
2023-11-25T18:02:27.840Z,92273.53
2023-11-25T18:04:54.550Z,92271.31
2023-11-25T18:07:21.663Z,92274.81
2023-11-25T18:09:48.223Z,92271.91
2023-11-25T18:12:14.745Z,92265.06
2023-11-25T18:14:41.319Z,92262.84
2023-11-25T18:17:07.949Z,92260.69
2023-11-25T18:19:35.545Z,92247.91
2023-11-25T18:22:02.070Z,92244.03
2023-11-25T18:24:28.926Z,92250.84
2023-11-25T18:26:55.612Z,92259.88
2023-11-25T18:29:22.286Z,92268.72
2023-11-25T18:31:49.023Z,92252.72
2023-11-25T18:34:15.798Z,92250.53
2023-11-25T18:36:42.535Z,92260.72
2023-11-25T18:39:10.949Z,92277.56
2023-11-25T18:41:37.609Z,92269.31
2023-11-25T18:44:05.663Z,92270.53
2023-11-25T18:46:33.183Z,92278.66
2023-11-25T18:49:00.167Z,92270.47
2023-11-25T18:51:27.774Z,92284.94
2023-11-25T18:53:54.456Z,92288.38
2023-11-25T18:56:21.279Z,92281.19
2023-11-25T18:58:48.032Z,92292.75
2023-11-25T19:01:14.972Z,92280.09
2023-11-25T19:03:42.684Z,92282.25
2023-11-25T19:06:09.406Z,92272.28
2023-11-25T19:08:35.896Z,92281.78
2023-11-25T19:11:02.785Z,92286.50
2023-11-25T19:13:29.352Z,92287.31
2023-11-25T19:15:55.834Z,92278.81
2023-11-25T19:18:22.431Z,92275.97
2023-11-25T19:20:48.958Z,92285.13
2023-11-25T19:23:15.504Z,92275.31
2023-11-25T19:25:42.106Z,92273.09
2023-11-25T19:28:09.021Z,92286.47
2023-11-25T19:30:35.545Z,92292.19
2023-11-25T19:33:02.136Z,92284.25
2023-11-25T19:35:28.695Z,92286.84
2023-11-25T19:37:55.629Z,92287.81
2023-11-25T19:40:22.525Z,92290.78
2023-11-25T19:42:49.242Z,92287.81
2023-11-25T19:45:16.025Z,92282.63
2023-11-25T19:47:42.855Z,92301.25
2023-11-25T19:50:10.737Z,92299.03
2023-11-25T19:52:39.370Z,92299.28
2023-11-25T19:55:07.341Z,92290.41
2023-11-25T19:57:34.804Z,92294.31
2023-11-25T20:00:01.881Z,92300.44
2023-11-25T20:02:28.799Z,92294.00
2023-11-25T20:04:55.472Z,92291.44
2023-11-25T20:07:22.130Z,92290.91
2023-11-25T20:09:48.651Z,92297.91
2023-11-25T20:12:15.312Z,92294.50
2023-11-25T20:14:42.123Z,92296.09
2023-11-25T20:17:08.676Z,92302.00
2023-11-25T20:19:35.258Z,92297.97
2023-11-25T20:22:02.086Z,92304.59
2023-11-25T20:24:28.625Z,92296.84
2023-11-25T20:26:56.312Z,92291.75
2023-11-25T20:29:23.014Z,92296.72
2023-11-25T20:31:49.530Z,92296.72
2023-11-25T20:34:16.117Z,92293.13
2023-11-25T20:36:42.650Z,92299.69
2023-11-25T20:39:09.467Z,92297.56
2023-11-25T20:41:36.382Z,92303.88
2023-11-25T20:44:03.318Z,92305.16
2023-11-25T20:46:30.035Z,92310.91
2023-11-25T20:48:56.561Z,92314.06
2023-11-25T20:51:23.361Z,92316.50
2023-11-25T20:53:50.955Z,92318.72
2023-11-25T20:56:19.247Z,92319.53
2023-11-25T20:58:46.704Z,92390.94
2023-11-25T21:01:14.888Z,92364.66
2023-11-25T21:03:41.610Z,92319.19
2023-11-25T21:06:08.337Z,92298.69
2023-11-25T21:08:34.828Z,92292.38
2023-11-25T21:11:01.383Z,92290.94
2023-11-25T21:13:27.933Z,92300.22
2023-11-25T21:15:54.555Z,92294.25
2023-11-25T21:18:22.855Z,92294.13
2023-11-25T21:20:49.368Z,92298.78
2023-11-25T21:23:15.825Z,92298.50
2023-11-25T21:25:42.484Z,92302.09
2023-11-25T21:28:09.526Z,92308.19
2023-11-25T21:30:36.255Z,92305.81
2023-11-25T21:33:03.024Z,92303.59
2023-11-25T21:35:29.558Z,92313.88
2023-11-25T21:37:56.152Z,92305.88
2023-11-25T21:40:24.007Z,92301.16
2023-11-25T21:42:51.104Z,92297.34
2023-11-25T21:45:17.587Z,92299.88
2023-11-25T21:47:44.126Z,92311.50
2023-11-25T21:50:11.504Z,92311.28
2023-11-25T21:52:38.637Z,92310.34
2023-11-25T21:55:05.946Z,92314.72
2023-11-25T21:57:32.523Z,92314.88
2023-11-25T21:59:59.164Z,92315.44
2023-11-25T22:02:26.926Z,92308.03
2023-11-25T22:04:53.615Z,92315.44
2023-11-25T22:07:20.157Z,92305.88
2023-11-25T22:09:46.634Z,92309.47
2023-11-25T22:12:13.119Z,92303.28
2023-11-25T22:14:39.593Z,92302.03
2023-11-25T22:17:06.183Z,92296.72
2023-11-25T22:19:32.704Z,92309.91
2023-11-25T22:21:59.203Z,92309.03
2023-11-25T22:24:26.775Z,92307.69
2023-11-25T22:27:10.909Z,92315.03
2023-11-25T22:29:37.564Z,92314.66
2023-11-25T22:32:05.005Z,92310.28
2023-11-25T22:34:31.602Z,92324.66
2023-11-25T22:36:58.565Z,92315.22
2023-11-25T22:39:25.153Z,92317.81
2023-11-25T22:41:51.653Z,92320.78
2023-11-25T22:44:19.150Z,92334.34
2023-11-25T22:46:45.757Z,92335.34
2023-11-25T22:49:12.422Z,92314.88
2023-11-25T22:51:38.940Z,92321.41
2023-11-25T22:54:05.583Z,92314.16
2023-11-25T22:56:32.120Z,92313.38
2023-11-25T22:58:58.650Z,92329.03
2023-11-25T23:01:28.693Z,92324.78
2023-11-25T23:03:56.520Z,92342.66
2023-11-25T23:06:26.531Z,92353.25
2023-11-25T23:08:54.172Z,92345.69
2023-11-25T23:11:21.111Z,92342.66
2023-11-25T23:13:47.694Z,92361.22
2023-11-25T23:16:16.352Z,92357.19
2023-11-25T23:18:43.337Z,92360.84
2023-11-25T23:21:10.328Z,92370.59
2023-11-25T23:23:43.136Z,92362.63
2023-11-25T23:26:12.899Z,92358.47
2023-11-25T23:28:39.403Z,92352.88
2023-11-25T23:31:05.922Z,92371.56
2023-11-25T23:33:32.449Z,92349.44
2023-11-25T23:35:59.024Z,92342.09
2023-11-25T23:38:25.765Z,92336.28
2023-11-25T23:40:53.009Z,92339.69
2023-11-25T23:43:20.030Z,92336.50
2023-11-25T23:45:46.586Z,92351.22
2023-11-25T23:48:13.136Z,92346.00
2023-11-25T23:50:39.611Z,92344.38
2023-11-25T23:53:06.119Z,92347.63
2023-11-25T23:55:32.759Z,92361.38
2023-11-25T23:57:59.831Z,92359.31
